createdAt,value
2023-06-03T00:00:33.138Z,95137.22
2023-06-03T00:03:00.514Z,95144.69
2023-06-03T00:05:27.656Z,95143.31
2023-06-03T00:07:54.651Z,95145.69
2023-06-03T00:10:21.637Z,95138.47
2023-06-03T00:12:48.633Z,95141.41
2023-06-03T00:15:15.828Z,95143.25
2023-06-03T00:17:43.011Z,95141.91
2023-06-03T00:20:10.931Z,95143.22
2023-06-03T00:22:39.331Z,95139.75
2023-06-03T00:25:08.649Z,95138.13
2023-06-03T00:27:36.574Z,95139.97
2023-06-03T00:30:06.893Z,95139.19
2023-06-03T00:32:35.622Z,95139.97
2023-06-03T00:35:03.130Z,95143.47
2023-06-03T00:37:30.071Z,95145.84
2023-06-03T00:39:57.119Z,95146.63
2023-06-03T00:42:24.248Z,95151.66
2023-06-03T00:44:51.369Z,95148.13
2023-06-03T00:47:20.408Z,95153.94
2023-06-03T00:49:48.348Z,95156.25
2023-06-03T00:52:17.842Z,95147.41
2023-06-03T00:54:46.126Z,95156.72
2023-06-03T00:57:13.281Z,95148.16
2023-06-03T00:59:40.321Z,95147.09
2023-06-03T01:02:07.416Z,95156.97
2023-06-03T01:04:36.147Z,95151.09
2023-06-03T01:07:07.725Z,95157.72
2023-06-03T01:10:11.130Z,95162.47
2023-06-03T01:12:46.834Z,95164.84
2023-06-03T01:15:21.517Z,95157.56
2023-06-03T01:17:53.946Z,95165.84
2023-06-03T01:20:28.235Z,95157.84
2023-06-03T01:23:24.839Z,95159.63
2023-06-03T01:25:54.016Z,95164.94
2023-06-03T01:28:24.774Z,95161.94
2023-06-03T01:30:57.158Z,95168.28
2023-06-03T01:33:28.802Z,95158.94
2023-06-03T01:35:59.592Z,95151.72
2023-06-03T01:38:27.718Z,95156.28
2023-06-03T01:40:57.803Z,95162.66
2023-06-03T01:43:25.093Z,95161.81
2023-06-03T01:45:52.215Z,95155.44
2023-06-03T01:48:19.342Z,95156.50
2023-06-03T01:50:46.410Z,95166.09
2023-06-03T01:53:16.580Z,95164.75
2023-06-03T01:55:47.205Z,95161.56
2023-06-03T01:58:15.681Z,95161.56
2023-06-03T02:00:43.182Z,95161.00
2023-06-03T02:03:10.384Z,95168.38
2023-06-03T02:05:37.713Z,95165.97
2023-06-03T02:08:05.302Z,95163.56
2023-06-03T02:10:32.446Z,95166.78
2023-06-03T02:12:59.440Z,95163.06
2023-06-03T02:15:26.464Z,95172.44
2023-06-03T02:17:56.685Z,95162.50
2023-06-03T02:20:25.549Z,95167.28
2023-06-03T02:22:54.485Z,95161.97
2023-06-03T02:25:21.990Z,95162.19
2023-06-03T02:27:49.331Z,95164.31
2023-06-03T02:30:16.460Z,95169.06
2023-06-03T02:32:43.638Z,95170.94
2023-06-03T02:35:11.039Z,95177.91
2023-06-03T02:37:38.387Z,95169.59
2023-06-03T02:40:07.373Z,95171.69
2023-06-03T02:42:34.660Z,95174.31
2023-06-03T02:45:01.757Z,95183.81
2023-06-03T02:47:28.818Z,95178.44
2023-06-03T02:49:56.950Z,95180.78
2023-06-03T02:52:24.489Z,95181.03
2023-06-03T02:54:51.782Z,95184.19
2023-06-03T02:57:18.799Z,95185.47
2023-06-03T02:59:45.891Z,95184.69
2023-06-03T03:02:12.915Z,95181.72
2023-06-03T03:04:39.970Z,95188.56
2023-06-03T03:07:10.649Z,95186.41
2023-06-03T03:09:39.630Z,95185.84
2023-06-03T03:12:09.008Z,95188.75
2023-06-03T03:14:39.955Z,95193.75
2023-06-03T03:17:08.133Z,95186.03
2023-06-03T03:19:35.093Z,95193.44
2023-06-03T03:22:04.239Z,95195.84
2023-06-03T03:24:31.996Z,95206.28
2023-06-03T03:27:00.671Z,95198.78
2023-06-03T03:29:28.290Z,95203.78
2023-06-03T03:32:08.891Z,95202.09
2023-06-03T03:34:39.767Z,95198.06
2023-06-03T03:37:12.961Z,95203.06
2023-06-03T03:39:41.990Z,95201.19
2023-06-03T03:42:10.888Z,95200.16
2023-06-03T03:44:38.375Z,95200.97
2023-06-03T03:47:08.599Z,95196.44
2023-06-03T03:49:40.901Z,95198.06
2023-06-03T03:52:14.974Z,95191.69
2023-06-03T03:54:44.908Z,95200.22
2023-06-03T03:57:15.210Z,95208.78
2023-06-03T03:59:49.828Z,95216.28
2023-06-03T04:02:20.758Z,95209.91
2023-06-03T04:04:48.301Z,95216.84
2023-06-03T04:07:21.349Z,95213.38
2023-06-03T04:09:49.793Z,95208.84
2023-06-03T04:12:34.919Z,95205.66
2023-06-03T04:15:05.074Z,95209.03
2023-06-03T04:17:39.168Z,95211.69
2023-06-03T04:20:42.264Z,95208.72
2023-06-03T04:23:16.328Z,95217.75
2023-06-03T04:25:44.427Z,95220.41
2023-06-03T04:28:14.465Z,95220.66
2023-06-03T04:30:42.721Z,95218.00
2023-06-03T04:33:09.946Z,95226.47
2023-06-03T04:35:37.223Z,95233.88
2023-06-03T04:38:04.896Z,95230.31
2023-06-03T04:40:32.072Z,95235.31
2023-06-03T04:43:04.542Z,95232.78
2023-06-03T04:45:33.280Z,95234.81
2023-06-03T04:48:02.822Z,95235.75
2023-06-03T04:50:36.162Z,95238.34
2023-06-03T04:53:05.990Z,95239.06
2023-06-03T04:55:33.344Z,95222.78
2023-06-03T04:58:01.945Z,95233.19
2023-06-03T05:00:30.234Z,95235.28
2023-06-03T05:03:11.392Z,95231.72
2023-06-03T05:05:45.067Z,95239.34
2023-06-03T05:08:16.034Z,95230.50
2023-06-03T05:10:43.704Z,95244.50
2023-06-03T05:13:11.275Z,95241.50
2023-06-03T05:15:38.852Z,95235.88
2023-06-03T05:18:06.463Z,95238.78
2023-06-03T05:20:34.337Z,95244.31
2023-06-03T05:23:02.420Z,95242.72
2023-06-03T05:25:30.411Z,95236.72
2023-06-03T05:28:04.028Z,95240.66
2023-06-03T05:30:34.279Z,95253.63
2023-06-03T05:33:01.848Z,95255.13
2023-06-03T05:35:29.689Z,95251.91
2023-06-03T05:37:56.829Z,95250.06
2023-06-03T05:40:24.285Z,95252.13
2023-06-03T05:42:51.531Z,95248.44
2023-06-03T05:45:21.479Z,95258.28
2023-06-03T05:47:48.587Z,95253.50
2023-06-03T05:50:15.920Z,95258.03
2023-06-03T05:52:43.216Z,95259.31
2023-06-03T05:55:13.056Z,95261.13
2023-06-03T05:57:41.922Z,95257.91
2023-06-03T06:00:10.379Z,95263.44
2023-06-03T06:02:41.757Z,95267.63
2023-06-03T06:05:10.416Z,95284.34
2023-06-03T06:07:37.460Z,95277.66
2023-06-03T06:10:04.794Z,95277.91
2023-06-03T06:12:31.866Z,95283.47
2023-06-03T06:14:58.976Z,95289.81
2023-06-03T06:17:26.208Z,95280.81
2023-06-03T06:19:53.435Z,95282.19
2023-06-03T06:22:20.819Z,95286.56
2023-06-03T06:24:48.663Z,95275.47
2023-06-03T06:27:16.261Z,95286.47
2023-06-03T06:29:43.713Z,95280.66
2023-06-03T06:32:22.971Z,95282.63
2023-06-03T06:34:50.600Z,95282.72
2023-06-03T06:37:20.688Z,95282.03
2023-06-03T06:39:53.203Z,95283.84
2023-06-03T06:42:38.189Z,95280.66
2023-06-03T06:45:28.180Z,95285.97
2023-06-03T06:48:11.374Z,95285.97
2023-06-03T06:50:55.332Z,95277.16
2023-06-03T06:53:37.535Z,95274.75
2023-06-03T06:56:09.355Z,95273.94
2023-06-03T06:58:43.695Z,95279.25
2023-06-03T07:01:11.997Z,95281.09
2023-06-03T07:03:51.010Z,95268.28
2023-06-03T07:06:19.162Z,95273.94
2023-06-03T07:08:49.628Z,95274.75
2023-06-03T07:11:18.953Z,95277.41
2023-06-03T07:13:53.087Z,95277.66
2023-06-03T07:16:22.376Z,95275.00
2023-06-03T07:18:54.509Z,95271.03
2023-06-03T07:21:26.638Z,95271.63
2023-06-03T07:23:58.523Z,95279.44
2023-06-03T07:26:29.716Z,95274.47
2023-06-03T07:29:00.114Z,95271.09
2023-06-03T07:31:31.934Z,95274.34
2023-06-03T07:33:59.426Z,95261.84
2023-06-03T07:36:36.480Z,95267.50
2023-06-03T07:39:07.832Z,95266.19
2023-06-03T07:41:51.461Z,95264.38
2023-06-03T07:44:49.698Z,95267.25
2023-06-03T07:47:18.869Z,95271.53
2023-06-03T07:49:48.321Z,95270.47
2023-06-03T07:52:22.330Z,95265.75
2023-06-03T07:54:50.633Z,95276.13
2023-06-03T07:57:18.277Z,95271.38
2023-06-03T07:59:56.498Z,95282.03
2023-06-03T08:02:24.210Z,95270.91
2023-06-03T08:04:54.647Z,95273.88
2023-06-03T08:07:21.736Z,95262.22
2023-06-03T08:09:48.837Z,95271.56
2023-06-03T08:12:19.099Z,95262.28
2023-06-03T08:14:46.065Z,95258.91
2023-06-03T08:17:15.135Z,95270.13
2023-06-03T08:19:47.089Z,95266.41
2023-06-03T08:22:43.009Z,95265.03
2023-06-03T08:25:11.195Z,95274.38
2023-06-03T08:27:38.631Z,95273.13
2023-06-03T08:30:06.834Z,95268.94
2023-06-03T08:32:39.830Z,95273.28
2023-06-03T08:35:12.478Z,95277.31
2023-06-03T08:37:40.042Z,95273.69
2023-06-03T08:40:12.084Z,95268.72
2023-06-03T08:42:49.474Z,95275.19
2023-06-03T08:45:19.086Z,95258.72
2023-06-03T08:48:53.085Z,95259.31
2023-06-03T08:51:24.205Z,95273.47
2023-06-03T08:53:53.107Z,95265.81
2023-06-03T08:56:21.716Z,95277.28
2023-06-03T08:59:02.453Z,95259.69
2023-06-03T09:01:36.985Z,95269.31
2023-06-03T09:04:05.352Z,95270.66
2023-06-03T09:06:35.562Z,95263.47
2023-06-03T09:09:03.263Z,95264.88
2023-06-03T09:11:30.711Z,95257.44
2023-06-03T09:13:59.541Z,95255.09
2023-06-03T09:16:27.871Z,95256.44
2023-06-03T09:18:55.110Z,95256.22
2023-06-03T09:21:22.260Z,95268.47
2023-06-03T09:23:49.411Z,95263.97
2023-06-03T09:26:16.992Z,95257.03
2023-06-03T09:28:46.121Z,95258.97
2023-06-03T09:31:14.122Z,95259.50
2023-06-03T09:33:44.344Z,95253.44
2023-06-03T09:36:19.699Z,95259.09
2023-06-03T09:38:56.053Z,95256.44
2023-06-03T09:41:28.553Z,95253.75
2023-06-03T09:44:03.236Z,95255.13
2023-06-03T09:46:32.794Z,95257.78
2023-06-03T09:49:28.219Z,95255.69
2023-06-03T09:52:00.954Z,95256.25
2023-06-03T09:54:27.932Z,95251.97
2023-06-03T09:56:55.012Z,95261.34
2023-06-03T09:59:27.341Z,95249.38
2023-06-03T10:01:56.645Z,95252.63
2023-06-03T10:04:36.098Z,95256.66
2023-06-03T10:07:18.708Z,95253.16
2023-06-03T10:09:48.042Z,95254.56
2023-06-03T10:12:32.129Z,95252.94
2023-06-03T10:15:01.990Z,95258.25
2023-06-03T10:17:29.082Z,95248.66
2023-06-03T10:19:56.580Z,95257.69
2023-06-03T10:22:27.276Z,95255.81
2023-06-03T10:24:59.706Z,95260.94
2023-06-03T10:27:28.677Z,95260.69
2023-06-03T10:29:56.493Z,95255.91
2023-06-03T10:32:25.321Z,95256.44
2023-06-03T10:34:54.560Z,95249.03
2023-06-03T10:37:24.149Z,95251.22
2023-06-03T10:39:51.247Z,95245.31
2023-06-03T10:42:20.103Z,95238.94
2023-06-03T10:44:47.424Z,95245.88
2023-06-03T10:47:28.272Z,95237.94
2023-06-03T10:50:07.053Z,95233.97
2023-06-03T10:53:28.541Z,95230.50
2023-06-03T10:56:31.008Z,95240.94
2023-06-03T10:59:08.120Z,95229.78
2023-06-03T11:02:04.167Z,95240.22
2023-06-03T11:04:34.839Z,95243.41
2023-06-03T11:07:03.963Z,95249.31
2023-06-03T11:09:39.480Z,95234.94
2023-06-03T11:12:16.951Z,95231.44
2023-06-03T11:14:50.350Z,95237.34
2023-06-03T11:17:22.187Z,95227.25
2023-06-03T11:19:56.307Z,95229.41
2023-06-03T11:22:29.131Z,95230.75
2023-06-03T11:24:59.703Z,95226.81
2023-06-03T11:27:29.210Z,95226.31
2023-06-03T11:29:58.215Z,95218.88
2023-06-03T11:32:28.672Z,95218.59
2023-06-03T11:35:04.861Z,95226.91
2023-06-03T11:37:47.281Z,95223.19
2023-06-03T11:40:18.792Z,95214.94
2023-06-03T11:42:48.546Z,95217.91
2023-06-03T11:45:22.347Z,95223.00
2023-06-03T11:47:54.185Z,95214.75
2023-06-03T11:50:28.811Z,95218.78
2023-06-03T11:52:55.902Z,95211.31
2023-06-03T11:55:33.815Z,95204.44
2023-06-03T11:58:15.120Z,95197.78
2023-06-03T12:00:42.130Z,95196.72
2023-06-03T12:03:16.605Z,95202.38
2023-06-03T12:05:54.403Z,95190.94
2023-06-03T12:08:21.376Z,95194.72
2023-06-03T12:10:49.894Z,95195.00
2023-06-03T12:13:18.556Z,95196.38
2023-06-03T12:15:49.988Z,95187.56
2023-06-03T12:18:17.273Z,95188.09
2023-06-03T12:20:49.044Z,95184.13
2023-06-03T12:23:24.279Z,95182.81
2023-06-03T12:25:56.823Z,95178.84
2023-06-03T12:28:26.083Z,95181.25
2023-06-03T12:30:53.219Z,95171.16
2023-06-03T12:33:20.702Z,95174.34
2023-06-03T12:35:55.870Z,95174.66
2023-06-03T12:38:23.036Z,95173.34
2023-06-03T12:40:50.028Z,95177.13
2023-06-03T12:43:23.584Z,95169.66
2023-06-03T12:45:50.828Z,95165.16
2023-06-03T12:48:31.891Z,95167.31
2023-06-03T12:51:01.241Z,95169.47
2023-06-03T12:53:28.560Z,95168.16
2023-06-03T12:55:55.677Z,95155.34
2023-06-03T12:58:22.842Z,95157.25
2023-06-03T13:00:49.972Z,95154.63
2023-06-03T13:03:17.342Z,95159.19
2023-06-03T13:05:45.807Z,95154.94
2023-06-03T13:08:14.425Z,95148.81
2023-06-03T13:10:42.447Z,95152.56
2023-06-03T13:13:09.428Z,95144.84
2023-06-03T13:15:36.874Z,95145.94
2023-06-03T13:18:04.190Z,95139.81
2023-06-03T13:20:32.181Z,95142.81
2023-06-03T13:22:59.249Z,95138.28
2023-06-03T13:25:26.273Z,95137.25
2023-06-03T13:27:53.364Z,95133.78
2023-06-03T13:30:20.484Z,95126.59
2023-06-03T13:32:47.554Z,95126.34
2023-06-03T13:35:15.023Z,95127.44
2023-06-03T13:37:41.999Z,95118.63
2023-06-03T13:40:10.029Z,95118.63
2023-06-03T13:42:37.338Z,95117.59
2023-06-03T13:45:07.477Z,95124.00
2023-06-03T13:47:35.537Z,95118.66
2023-06-03T13:50:03.587Z,95113.06
2023-06-03T13:52:30.797Z,95115.47
2023-06-03T13:54:57.824Z,95110.94
2023-06-03T13:57:24.797Z,95109.09
2023-06-03T13:59:51.793Z,95115.22
2023-06-03T14:02:19.023Z,95112.31
2023-06-03T14:04:46.203Z,95119.81
2023-06-03T14:07:13.449Z,95120.06
2023-06-03T14:09:40.896Z,95108.56
2023-06-03T14:12:08.338Z,95116.03
2023-06-03T14:14:35.467Z,95108.53
2023-06-03T14:17:02.496Z,95095.66
2023-06-03T14:19:31.351Z,95099.13
2023-06-03T14:21:58.316Z,95097.28
2023-06-03T14:24:25.559Z,95086.53
2023-06-03T14:26:52.553Z,95091.38
2023-06-03T14:29:19.730Z,95087.84
2023-06-03T14:31:48.105Z,95089.72
2023-06-03T14:34:15.479Z,95074.16
2023-06-03T14:36:42.423Z,95081.91
2023-06-03T14:39:09.699Z,95070.34
2023-06-03T14:41:36.926Z,95075.94
2023-06-03T14:44:04.151Z,95070.06
2023-06-03T14:46:31.241Z,95067.91
2023-06-03T14:48:58.260Z,95072.69
2023-06-03T14:51:25.331Z,95068.66
2023-06-03T14:53:52.343Z,95061.69
2023-06-03T14:56:19.570Z,95056.81
2023-06-03T14:58:46.858Z,95059.47
2023-06-03T15:01:14.125Z,95060.00
2023-06-03T15:03:41.435Z,95055.38
2023-06-03T15:06:08.981Z,95054.28
2023-06-03T15:08:36.714Z,95055.03
2023-06-03T15:11:03.822Z,95048.56
2023-06-03T15:13:30.898Z,95053.09
2023-06-03T15:15:57.882Z,95055.22
2023-06-03T15:18:25.092Z,95057.34
2023-06-03T15:20:52.260Z,95062.16
2023-06-03T15:23:19.346Z,95060.56
2023-06-03T15:25:47.083Z,95048.22
2023-06-03T15:28:14.829Z,95041.19
2023-06-03T15:30:41.915Z,95046.00
2023-06-03T15:33:09.009Z,95049.72
2023-06-03T15:35:36.326Z,95040.84
2023-06-03T15:38:03.462Z,95040.78
2023-06-03T15:40:30.621Z,95037.78
2023-06-03T15:42:58.565Z,95033.75
2023-06-03T15:45:25.988Z,95037.22
2023-06-03T15:47:53.331Z,95045.00
2023-06-03T15:50:21.129Z,95035.06
2023-06-03T15:52:48.590Z,95029.97
2023-06-03T15:55:15.986Z,95036.72
2023-06-03T15:57:43.022Z,95029.50
2023-06-03T16:00:10.912Z,95033.78
2023-06-03T16:02:38.423Z,95033.22
2023-06-03T16:05:06.436Z,95024.06
2023-06-03T16:07:33.556Z,95027.56
2023-06-03T16:10:00.570Z,95027.28
2023-06-03T16:12:27.717Z,95029.69
2023-06-03T16:14:55.171Z,95024.28
2023-06-03T16:17:22.324Z,95025.84
2023-06-03T16:19:49.432Z,95027.97
2023-06-03T16:22:16.598Z,95019.63
2023-06-03T16:24:45.809Z,95023.63
2023-06-03T16:27:13.177Z,95031.38
2023-06-03T16:29:42.002Z,95024.16
2023-06-03T16:32:09.977Z,95026.84
2023-06-03T16:34:36.940Z,95020.44
2023-06-03T16:37:04.381Z,95028.53
2023-06-03T16:39:31.420Z,95026.41
2023-06-03T16:41:58.343Z,95031.25
2023-06-03T16:44:25.760Z,95033.94
2023-06-03T16:46:53.277Z,95035.03
2023-06-03T16:49:23.135Z,95042.78
2023-06-03T16:51:51.026Z,95040.09
2023-06-03T16:54:18.619Z,95042.53
2023-06-03T16:56:45.762Z,95045.22
2023-06-03T16:59:14.394Z,95042.53
2023-06-03T17:01:41.540Z,95048.69
2023-06-03T17:04:08.675Z,95039.84
2023-06-03T17:06:35.808Z,95048.69
2023-06-03T17:09:02.761Z,95040.94
2023-06-03T17:11:31.953Z,95040.94
2023-06-03T17:14:03.287Z,95047.91
2023-06-03T17:16:32.257Z,95042.25
2023-06-03T17:19:00.314Z,95046.28
2023-06-03T17:21:27.462Z,95046.59
2023-06-03T17:23:54.467Z,95047.38
2023-06-03T17:26:22.697Z,95046.59
2023-06-03T17:28:49.801Z,95051.44
2023-06-03T17:31:17.138Z,95055.44
2023-06-03T17:33:47.279Z,95053.59
2023-06-03T17:36:14.760Z,95053.06
2023-06-03T17:38:41.843Z,95053.59
2023-06-03T17:41:09.170Z,95063.78
2023-06-03T17:43:37.867Z,95055.72
2023-06-03T17:46:05.806Z,95058.91
2023-06-03T17:48:33.160Z,95053.53
2023-06-03T17:51:00.309Z,95053.53
2023-06-03T17:53:27.354Z,95058.66
2023-06-03T17:55:54.441Z,95059.72
2023-06-03T17:58:21.515Z,95063.50
2023-06-03T18:00:48.524Z,95068.34
2023-06-03T18:03:15.607Z,95062.47
2023-06-03T18:05:42.659Z,95064.59
2023-06-03T18:08:09.616Z,95072.13
2023-06-03T18:10:36.827Z,95076.16
2023-06-03T18:13:05.512Z,95078.06
2023-06-03T18:15:32.702Z,95067.88
2023-06-03T18:17:59.653Z,95075.44
2023-06-03T18:20:26.891Z,95073.81
2023-06-03T18:22:53.963Z,95078.66
2023-06-03T18:25:22.027Z,95080.56
2023-06-03T18:27:49.014Z,95081.88
2023-06-03T18:30:16.235Z,95084.06
2023-06-03T18:32:43.492Z,95084.34
2023-06-03T18:35:11.500Z,95090.81
2023-06-03T18:37:43.676Z,95084.63
2023-06-03T18:40:11.192Z,95090.28
2023-06-03T18:42:38.337Z,95084.13
2023-06-03T18:45:06.145Z,95081.69
2023-06-03T18:47:33.279Z,95084.66
2023-06-03T18:50:00.427Z,95087.91
2023-06-03T18:52:27.479Z,95091.69
2023-06-03T18:54:54.428Z,95094.91
2023-06-03T18:57:21.730Z,95094.66
2023-06-03T18:59:48.750Z,95086.38
2023-06-03T19:02:15.779Z,95102.22
2023-06-03T19:04:42.858Z,95099.28
2023-06-03T19:07:09.859Z,95100.66
2023-06-03T19:09:36.915Z,95094.75
2023-06-03T19:12:04.169Z,95092.94
2023-06-03T19:14:31.532Z,95101.53
2023-06-03T19:16:59.927Z,95105.84
2023-06-03T19:19:27.019Z,95104.78
2023-06-03T19:21:54.176Z,95105.59
2023-06-03T19:24:22.180Z,95110.72
2023-06-03T19:26:49.270Z,95113.13
2023-06-03T19:29:18.153Z,95118.25
2023-06-03T19:31:45.682Z,95115.56
2023-06-03T19:34:13.188Z,95113.44
2023-06-03T19:36:40.332Z,95127.97
2023-06-03T19:39:09.438Z,95128.50
2023-06-03T19:41:36.864Z,95131.19
2023-06-03T19:44:03.979Z,95134.69
2023-06-03T19:46:33.657Z,95139.28
2023-06-03T19:49:04.069Z,95141.94
2023-06-03T19:51:32.791Z,95143.03
2023-06-03T19:54:01.073Z,95145.75
2023-06-03T19:56:28.405Z,95147.63
2023-06-03T19:58:55.994Z,95150.03
2023-06-03T20:01:23.055Z,95142.81
2023-06-03T20:03:50.625Z,95148.69
2023-06-03T20:06:18.507Z,95145.75
2023-06-03T20:08:45.494Z,95159.94
2023-06-03T20:11:12.590Z,95158.88
2023-06-03T20:13:39.731Z,95155.16
2023-06-03T20:16:06.947Z,95155.13
2023-06-03T20:18:34.446Z,95158.34
2023-06-03T20:21:01.749Z,95151.91
2023-06-03T20:23:29.014Z,95152.47
2023-06-03T20:25:56.904Z,95148.44
2023-06-03T20:28:24.798Z,95145.78
2023-06-03T20:30:52.342Z,95155.13
2023-06-03T20:33:19.571Z,95158.06
2023-06-03T20:35:47.201Z,95160.47
2023-06-03T20:38:14.671Z,95156.75
2023-06-03T20:40:42.624Z,95155.66
2023-06-03T20:43:09.750Z,95150.84
2023-06-03T20:45:41.493Z,95159.41
2023-06-03T20:48:12.004Z,95159.09
2023-06-03T20:50:39.092Z,95153.72
2023-06-03T20:53:06.985Z,95149.72
2023-06-03T20:55:34.577Z,95148.63
2023-06-03T20:58:02.805Z,95147.00
2023-06-03T21:00:29.825Z,95143.25
2023-06-03T21:02:57.781Z,95143.78
2023-06-03T21:05:25.096Z,95145.38
2023-06-03T21:07:52.305Z,95145.94
2023-06-03T21:10:19.360Z,95146.44
2023-06-03T21:12:46.650Z,95140.53
2023-06-03T21:15:13.756Z,95148.28
2023-06-03T21:17:41.082Z,95147.78
2023-06-03T21:20:09.994Z,95153.06
2023-06-03T21:22:36.980Z,95151.72
2023-06-03T21:25:04.883Z,95145.03
2023-06-03T21:27:31.875Z,95143.97
2023-06-03T21:29:58.845Z,95148.22
2023-06-03T21:32:25.936Z,95152.50
2023-06-03T21:34:52.949Z,95154.88
2023-06-03T21:37:19.934Z,95156.22
2023-06-03T21:39:46.962Z,95156.47
2023-06-03T21:42:14.194Z,95145.22
2023-06-03T21:44:41.155Z,95156.41
2023-06-03T21:47:10.308Z,95163.34
2023-06-03T21:49:37.421Z,95161.44
2023-06-03T21:52:04.695Z,95156.63
2023-06-03T21:54:31.782Z,95152.34
2023-06-03T21:56:58.869Z,95157.66
2023-06-03T21:59:26.039Z,95163.25
2023-06-03T22:01:53.141Z,95157.38
2023-06-03T22:04:20.452Z,95154.41
2023-06-03T22:06:47.560Z,95150.41
2023-06-03T22:09:14.735Z,95138.88
2023-06-03T22:11:41.765Z,95151.44
2023-06-03T22:14:08.770Z,95150.06
2023-06-03T22:16:36.238Z,95146.88
2023-06-03T22:19:03.300Z,95146.56
2023-06-03T22:21:31.424Z,95141.75
2023-06-03T22:23:59.012Z,95140.38
2023-06-03T22:26:26.981Z,95140.09
2023-06-03T22:28:54.103Z,95136.63
2023-06-03T22:31:21.118Z,95136.34
2023-06-03T22:33:48.778Z,95131.50
2023-06-03T22:36:16.226Z,95133.66
2023-06-03T22:38:43.222Z,95136.81
2023-06-03T22:41:10.139Z,95139.19
2023-06-03T22:43:37.218Z,95134.38
2023-06-03T22:46:04.220Z,95139.16
2023-06-03T22:48:31.334Z,95134.31
2023-06-03T22:50:58.358Z,95133.78
2023-06-03T22:53:25.399Z,95142.28
2023-06-03T22:55:52.749Z,95137.69
2023-06-03T22:58:19.953Z,95135.28
2023-06-03T23:00:46.970Z,95133.13
2023-06-03T23:03:14.226Z,95139.53
2023-06-03T23:05:41.422Z,95136.56
2023-06-03T23:08:08.443Z,95136.00
2023-06-03T23:10:35.406Z,95138.94
2023-06-03T23:13:02.443Z,95142.94
2023-06-03T23:15:29.616Z,95138.88
2023-06-03T23:17:57.017Z,95130.34
2023-06-03T23:20:26.961Z,95132.72
2023-06-03T23:22:54.659Z,95127.06
2023-06-03T23:25:22.140Z,95126.50
2023-06-03T23:27:49.425Z,95131.56
2023-06-03T23:30:16.557Z,95123.03
2023-06-03T23:32:44.465Z,95123.25
2023-06-03T23:35:12.458Z,95118.97
2023-06-03T23:37:42.693Z,95120.06
2023-06-03T23:40:11.514Z,95115.22
2023-06-03T23:42:39.943Z,95113.84
2023-06-03T23:45:08.403Z,95110.63
2023-06-03T23:47:35.610Z,95106.88
2023-06-03T23:50:03.033Z,95108.97
2023-06-03T23:52:30.075Z,95103.91
2023-06-03T23:54:57.450Z,95104.16
2023-06-03T23:57:26.960Z,95103.59
2023-06-03T23:59:53.966Z,95106.53
